createdAt,value
2018-03-22T00:04:10.579Z,13.57
2018-03-22T00:06:39.673Z,9.68
2018-03-22T00:09:08.275Z,12.80
2018-03-22T00:11:36.845Z,20.50
2018-03-22T00:14:05.333Z,15.93
2018-03-22T00:16:33.849Z,20.83
2018-03-22T00:19:02.413Z,17.20
2018-03-22T00:21:31.114Z,17.52
2018-03-22T00:23:59.834Z,23.98
2018-03-22T00:26:28.654Z,23.87
2018-03-22T00:28:57.280Z,20.25
2018-03-22T00:31:25.966Z,24.65
2018-03-22T00:33:54.609Z,29.12
2018-03-22T00:36:23.504Z,27.45
2018-03-22T00:38:52.218Z,20.17
2018-03-22T00:41:21.007Z,24.20
2018-03-22T00:43:49.773Z,28.73
2018-03-22T00:46:18.783Z,28.65
2018-03-22T00:48:47.349Z,33.33
2018-03-22T00:51:16.095Z,42.50
2018-03-22T00:53:44.737Z,34.60
2018-03-22T00:56:13.673Z,33.30
2018-03-22T00:58:43.359Z,35.90
2018-03-22T01:01:12.862Z,30.60
2018-03-22T01:03:41.918Z,35.90
2018-03-22T01:06:10.502Z,34.78
2018-03-22T01:08:39.099Z,35.35
2018-03-22T01:11:07.596Z,31.08
2018-03-22T01:13:36.176Z,44.22
2018-03-22T01:16:04.727Z,37.60
2018-03-22T01:18:33.258Z,28.73
2018-03-22T01:21:01.820Z,29.33
2018-03-22T01:23:31.340Z,36.72
2018-03-22T01:25:59.920Z,44.38
2018-03-22T01:28:28.603Z,34.78
2018-03-22T01:30:57.145Z,33.92
2018-03-22T01:33:25.837Z,31.50
2018-03-22T01:35:54.620Z,31.15
2018-03-22T01:38:23.655Z,40.90
2018-03-22T01:40:52.231Z,35.42
2018-03-22T01:43:20.849Z,32.75
2018-03-22T01:45:49.474Z,40.90
2018-03-22T01:48:18.881Z,36.15
2018-03-22T01:50:47.541Z,38.97
2018-03-22T01:53:16.072Z,35.17
2018-03-22T01:55:44.601Z,35.58
2018-03-22T01:58:14.676Z,29.98
2018-03-22T02:00:43.229Z,33.30
2018-03-22T02:03:11.785Z,29.35
2018-03-22T02:05:40.512Z,37.67
2018-03-22T02:08:09.006Z,31.62
2018-03-22T02:10:37.513Z,25.27
2018-03-22T02:13:06.079Z,29.23
2018-03-22T02:15:34.520Z,26.45
2018-03-22T02:18:03.035Z,29.63
2018-03-22T02:20:31.732Z,28.20
2018-03-22T02:23:00.378Z,27.25
2018-03-22T02:25:28.859Z,24.48
2018-03-22T02:27:57.439Z,28.40
2018-03-22T02:30:26.008Z,21.95
2018-03-22T02:32:54.514Z,23.45
2018-03-22T02:35:23.286Z,27.45
2018-03-22T02:37:52.314Z,22.25
2018-03-22T02:40:20.932Z,24.25
2018-03-22T02:42:49.521Z,22.73
2018-03-22T02:45:18.165Z,26.75
2018-03-22T02:47:46.851Z,25.02
2018-03-22T02:50:15.756Z,23.65
2018-03-22T02:52:45.882Z,22.00
2018-03-22T02:55:15.891Z,24.90
2018-03-22T02:57:45.596Z,22.50
2018-03-22T03:00:14.407Z,23.45
2018-03-22T03:02:43.079Z,21.70
2018-03-22T03:05:11.775Z,21.27
2018-03-22T03:07:40.630Z,22.37
2018-03-22T03:10:09.115Z,29.10
2018-03-22T03:12:37.895Z,23.40
2018-03-22T03:15:06.352Z,21.05
2018-03-22T03:17:34.863Z,21.25
2018-03-22T03:20:03.554Z,15.93
2018-03-22T03:22:32.158Z,22.23
2018-03-22T03:25:00.692Z,21.08
2018-03-22T03:27:29.423Z,22.85
2018-03-22T03:29:57.998Z,20.67
2018-03-22T03:32:26.745Z,18.45
2018-03-22T03:34:55.354Z,18.92
2018-03-22T03:37:24.184Z,18.45
2018-03-22T03:39:52.956Z,22.17
2018-03-22T03:42:21.748Z,18.27
2018-03-22T03:44:50.423Z,19.95
2018-03-22T03:47:19.184Z,19.98
2018-03-22T03:49:48.107Z,19.70
2018-03-22T03:52:16.736Z,17.75
2018-03-22T03:54:45.278Z,21.35
2018-03-22T03:57:13.861Z,19.30
2018-03-22T03:59:42.488Z,17.12
2018-03-22T04:02:10.965Z,17.08
2018-03-22T04:04:39.501Z,20.85
2018-03-22T04:07:07.970Z,17.02
2018-03-22T04:09:36.580Z,18.73
2018-03-22T04:12:05.110Z,19.48
2018-03-22T04:14:33.677Z,18.20
2018-03-22T04:17:02.302Z,19.52
2018-03-22T04:19:30.822Z,19.67
2018-03-22T04:21:59.265Z,14.38
2018-03-22T04:24:27.854Z,17.23
2018-03-22T04:26:56.442Z,17.58
2018-03-22T04:29:25.796Z,18.05
2018-03-22T04:31:54.418Z,20.62
2018-03-22T04:34:24.871Z,19.42
2018-03-22T04:36:53.437Z,18.02
2018-03-22T04:39:21.968Z,20.20
2018-03-22T04:41:50.595Z,18.95
2018-03-22T04:44:19.135Z,21.70
2018-03-22T04:46:47.658Z,17.98
2018-03-22T04:49:16.449Z,22.33
2018-03-22T04:51:45.514Z,22.50
2018-03-22T04:54:14.090Z,28.67
2018-03-22T04:56:42.816Z,24.00
2018-03-22T04:59:11.295Z,22.98
2018-03-22T05:01:39.903Z,25.52
2018-03-22T05:04:08.503Z,25.52
2018-03-22T05:06:36.969Z,24.02
2018-03-22T05:09:05.669Z,26.85
2018-03-22T05:11:34.188Z,27.27
2018-03-22T05:14:02.900Z,26.50
2018-03-22T05:16:31.386Z,24.42
2018-03-22T05:18:59.900Z,23.35
2018-03-22T05:21:28.549Z,22.70
2018-03-22T05:23:58.258Z,32.17
2018-03-22T05:26:26.898Z,26.62
2018-03-22T05:28:55.445Z,24.30
2018-03-22T05:31:24.210Z,24.55
2018-03-22T05:33:53.311Z,27.05
2018-03-22T05:36:22.204Z,25.67
2018-03-22T05:38:50.803Z,29.85
2018-03-22T05:41:20.450Z,28.33
2018-03-22T05:43:49.140Z,27.55
2018-03-22T05:46:17.903Z,31.05
2018-03-22T05:48:46.852Z,34.10
2018-03-22T05:51:15.447Z,36.05
2018-03-22T05:53:44.131Z,37.08
2018-03-22T05:56:13.334Z,34.15
2018-03-22T05:58:41.809Z,29.00
2018-03-22T06:01:10.346Z,30.62
2018-03-22T06:03:38.977Z,34.00
2018-03-22T06:06:07.578Z,32.08
2018-03-22T06:08:36.094Z,34.42
2018-03-22T06:11:04.904Z,32.58
2018-03-22T06:13:34.228Z,32.13
2018-03-22T06:16:02.822Z,33.60
2018-03-22T06:18:31.452Z,36.10
2018-03-22T06:21:00.012Z,32.60
2018-03-22T06:23:28.525Z,38.33
2018-03-22T06:25:58.148Z,33.53
2018-03-22T06:28:26.635Z,44.88
2018-03-22T06:30:55.206Z,37.75
2018-03-22T06:33:24.032Z,33.22
2018-03-22T06:35:53.353Z,62.67
2018-03-22T06:38:23.140Z,37.97
2018-03-22T06:40:52.077Z,39.17
2018-03-22T06:43:20.994Z,33.13
2018-03-22T06:45:49.594Z,36.60
2018-03-22T06:48:18.773Z,30.30
2018-03-22T06:50:48.821Z,38.05
2018-03-22T06:53:17.773Z,33.85
2018-03-22T06:55:46.616Z,37.63
2018-03-22T06:58:15.827Z,47.22
2018-03-22T07:00:44.679Z,27.85
2018-03-22T07:03:13.581Z,33.45
2018-03-22T07:05:42.178Z,32.25
2018-03-22T07:08:10.784Z,31.02
2018-03-22T07:10:39.339Z,26.85
2018-03-22T07:13:08.205Z,36.08
2018-03-22T07:15:36.684Z,31.52
2018-03-22T07:18:05.347Z,31.67
2018-03-22T07:20:33.860Z,28.52
2018-03-22T07:23:02.744Z,20.20
2018-03-22T07:25:31.293Z,35.03
2018-03-22T07:27:59.776Z,19.85
2018-03-22T07:30:28.312Z,20.55
2018-03-22T07:32:56.962Z,20.48
2018-03-22T07:35:25.508Z,18.73
2018-03-22T07:37:54.397Z,22.85
2018-03-22T07:40:24.265Z,13.10
2018-03-22T07:42:58.526Z,17.52
2018-03-22T07:45:27.246Z,18.55
2018-03-22T07:47:55.733Z,17.40
2018-03-22T07:50:24.538Z,11.73
2018-03-22T07:52:53.222Z,13.35
2018-03-22T07:55:21.807Z,12.50
2018-03-22T07:57:50.700Z,14.52
2018-03-22T08:00:19.691Z,17.02
2018-03-22T08:02:48.483Z,13.73
2018-03-22T08:05:17.547Z,10.18
2018-03-22T08:07:46.395Z,18.48
2018-03-22T08:10:14.919Z,7.82
2018-03-22T08:12:44.452Z,8.80
2018-03-22T08:15:13.086Z,8.00
2018-03-22T08:17:41.561Z,9.88
2018-03-22T08:20:09.999Z,7.45
2018-03-22T08:22:38.608Z,10.05
2018-03-22T08:25:07.080Z,7.12
2018-03-22T08:27:35.573Z,10.63
2018-03-22T08:30:04.207Z,6.00
2018-03-22T08:32:33.715Z,10.95
2018-03-22T08:35:03.292Z,3.95
2018-03-22T08:37:31.807Z,5.00
2018-03-22T08:40:00.443Z,7.25
2018-03-22T08:42:28.969Z,4.30
2018-03-22T08:44:57.644Z,6.30
2018-03-22T08:47:26.230Z,9.30
2018-03-22T08:49:54.774Z,4.28
2018-03-22T08:52:23.421Z,4.25
2018-03-22T08:54:52.054Z,9.05
2018-03-22T08:57:20.594Z,2.55
2018-03-22T08:59:49.426Z,4.35
2018-03-22T09:02:18.069Z,2.75
2018-03-22T09:04:46.645Z,2.90
2018-03-22T09:07:15.297Z,2.85
2018-03-22T09:09:43.821Z,6.75
2018-03-22T09:12:13.177Z,2.70
2018-03-22T09:14:41.709Z,5.00
2018-03-22T09:17:10.268Z,2.85
2018-03-22T09:19:38.763Z,7.65
2018-03-22T09:22:07.347Z,2.40
2018-03-22T09:24:35.812Z,2.50
2018-03-22T09:27:06.202Z,2.95
2018-03-22T09:29:34.712Z,4.53
2018-03-22T09:32:03.214Z,3.65
2018-03-22T09:34:31.763Z,6.55
2018-03-22T09:37:00.242Z,2.30
2018-03-22T09:39:28.710Z,2.22
2018-03-22T09:41:57.190Z,2.55
2018-03-22T09:44:25.727Z,3.60
2018-03-22T09:46:55.169Z,3.78
2018-03-22T09:49:23.881Z,3.12
2018-03-22T09:51:52.649Z,5.28
2018-03-22T09:54:21.165Z,10.70
2018-03-22T09:56:49.851Z,3.80
2018-03-22T09:59:18.557Z,9.75
2018-03-22T10:01:47.543Z,5.87
2018-03-22T10:04:18.400Z,5.68
2018-03-22T10:06:47.583Z,4.12
2018-03-22T10:09:16.373Z,5.82
2018-03-22T10:11:45.059Z,3.80
2018-03-22T10:14:14.054Z,2.95
2018-03-22T10:16:42.606Z,9.10
2018-03-22T10:19:11.266Z,5.50
2018-03-22T10:21:39.972Z,4.35
2018-03-22T10:24:08.483Z,3.03
2018-03-22T10:26:37.118Z,3.62
2018-03-22T10:29:05.672Z,3.45
2018-03-22T10:31:35.126Z,3.00
2018-03-22T10:34:03.638Z,7.97
2018-03-22T10:36:32.171Z,3.80
2018-03-22T10:39:00.614Z,6.07
2018-03-22T10:41:29.250Z,3.35
2018-03-22T10:43:58.002Z,5.03
2018-03-22T10:46:26.517Z,5.43
2018-03-22T10:48:55.367Z,3.70
2018-03-22T10:51:24.252Z,4.68
2018-03-22T10:53:52.950Z,7.45
2018-03-22T10:56:21.519Z,7.22
2018-03-22T10:58:50.334Z,8.82
2018-03-22T11:01:24.633Z,3.80
2018-03-22T11:03:54.531Z,4.32
2018-03-22T11:06:23.181Z,20.40
2018-03-22T11:08:51.792Z,3.97
2018-03-22T11:11:20.462Z,7.20
2018-03-22T11:13:49.212Z,6.00
2018-03-22T11:16:17.825Z,6.15
2018-03-22T11:18:50.356Z,6.18
2018-03-22T11:21:19.282Z,4.07
2018-03-22T11:23:47.871Z,6.68
2018-03-22T11:26:16.666Z,10.35
2018-03-22T11:28:45.372Z,4.30
2018-03-22T11:31:13.934Z,14.02
2018-03-22T11:33:42.448Z,6.78
2018-03-22T11:36:10.930Z,9.10
2018-03-22T11:38:44.226Z,5.10
2018-03-22T11:41:15.055Z,7.72
2018-03-22T11:43:43.752Z,9.55
2018-03-22T11:46:12.386Z,10.13
2018-03-22T11:48:40.893Z,7.53
2018-03-22T11:51:09.433Z,7.25
2018-03-22T11:53:38.134Z,5.30
2018-03-22T11:56:06.791Z,4.85
2018-03-22T11:58:35.454Z,5.12
2018-03-22T12:01:04.232Z,6.53
2018-03-22T12:03:32.780Z,7.80
2018-03-22T12:06:01.470Z,9.73
2018-03-22T12:08:30.087Z,13.00
2018-03-22T12:10:58.943Z,5.45
2018-03-22T12:13:28.689Z,5.25
2018-03-22T12:15:57.328Z,5.68
2018-03-22T12:18:25.977Z,3.85
2018-03-22T12:20:54.625Z,8.30
2018-03-22T12:23:23.410Z,3.53
2018-03-22T12:25:52.218Z,4.30
2018-03-22T12:28:20.899Z,8.02
2018-03-22T12:30:49.497Z,5.62
2018-03-22T12:33:18.395Z,5.22
2018-03-22T12:35:46.984Z,5.72
2018-03-22T12:38:15.694Z,3.83
2018-03-22T12:40:44.538Z,6.72
2018-03-22T12:43:13.097Z,9.13
2018-03-22T12:45:41.682Z,3.03
2018-03-22T12:48:10.286Z,4.28
2018-03-22T12:50:38.867Z,7.25
2018-03-22T12:53:07.526Z,6.50
2018-03-22T12:55:36.041Z,4.20
2018-03-22T12:58:05.154Z,4.47
2018-03-22T13:00:33.718Z,6.30
2018-03-22T13:03:02.315Z,3.80
2018-03-22T13:05:30.863Z,4.43
2018-03-22T13:07:59.650Z,3.28
2018-03-22T13:10:28.333Z,3.83
2018-03-22T13:12:57.062Z,10.38
2018-03-22T13:15:25.766Z,4.75
2018-03-22T13:17:55.488Z,4.25
2018-03-22T13:20:24.441Z,3.85
2018-03-22T13:22:55.916Z,5.10
2018-03-22T13:25:25.383Z,5.40
2018-03-22T13:27:54.167Z,3.80
2018-03-22T13:30:22.997Z,3.45
2018-03-22T13:32:51.579Z,4.85
2018-03-22T13:35:22.175Z,14.05
2018-03-22T13:37:50.869Z,3.95
2018-03-22T13:40:19.465Z,5.55
2018-03-22T13:42:48.130Z,3.85
2018-03-22T13:45:16.719Z,3.22
2018-03-22T13:47:45.795Z,4.12
2018-03-22T13:50:14.748Z,5.45
2018-03-22T13:52:43.330Z,6.37
2018-03-22T13:55:11.869Z,4.35
2018-03-22T13:57:40.332Z,4.32
2018-03-22T14:00:08.882Z,5.68
2018-03-22T14:02:38.571Z,3.22
2018-03-22T14:05:09.022Z,3.53
2018-03-22T14:07:37.713Z,4.45
2018-03-22T14:10:06.247Z,3.67
2018-03-22T14:12:34.776Z,3.40
2018-03-22T14:15:03.385Z,5.40
2018-03-22T14:17:31.933Z,4.40
2018-03-22T14:20:00.656Z,8.82
2018-03-22T14:22:29.379Z,5.70
2018-03-22T14:24:58.060Z,5.90
2018-03-22T14:27:26.765Z,7.60
2018-03-22T14:29:55.476Z,9.38
2018-03-22T14:32:24.256Z,4.35
2018-03-22T14:34:53.006Z,10.00
2018-03-22T14:37:21.875Z,4.53
2018-03-22T14:39:50.458Z,5.97
2018-03-22T14:42:19.269Z,4.65
2018-03-22T14:44:48.052Z,5.80
2018-03-22T14:47:16.609Z,4.97
2018-03-22T14:49:46.126Z,8.98
2018-03-22T14:52:14.959Z,8.25
2018-03-22T14:54:43.517Z,6.10
2018-03-22T14:57:12.093Z,6.10
2018-03-22T14:59:40.627Z,6.93
2018-03-22T15:02:09.247Z,5.62
2018-03-22T15:04:37.727Z,5.53
2018-03-22T15:07:06.309Z,4.90
2018-03-22T15:09:34.919Z,4.47
2018-03-22T15:12:04.235Z,7.55
2018-03-22T15:14:32.977Z,6.72
2018-03-22T15:17:01.556Z,5.40
2018-03-22T15:19:30.371Z,5.10
2018-03-22T15:21:58.993Z,6.00
2018-03-22T15:24:27.565Z,8.15
2018-03-22T15:26:56.115Z,5.32
2018-03-22T15:29:25.010Z,6.93
2018-03-22T15:31:53.701Z,6.18
2018-03-22T15:34:22.489Z,7.53
2018-03-22T15:36:51.284Z,4.72
2018-03-22T15:39:19.965Z,7.57
2018-03-22T15:41:48.471Z,6.05
2018-03-22T15:44:17.152Z,7.78
2018-03-22T15:46:45.630Z,6.28
2018-03-22T15:49:14.296Z,4.72
2018-03-22T15:51:42.777Z,5.65
2018-03-22T15:54:11.196Z,5.15
2018-03-22T15:56:39.746Z,6.07
2018-03-22T15:59:08.337Z,5.00
2018-03-22T16:01:36.772Z,6.97
2018-03-22T16:04:05.224Z,5.45
2018-03-22T16:06:33.934Z,6.82
2018-03-22T16:09:02.715Z,7.25
2018-03-22T16:11:31.173Z,5.10
2018-03-22T16:13:59.749Z,5.85
2018-03-22T16:16:28.250Z,5.85
2018-03-22T16:18:56.957Z,9.43
2018-03-22T16:21:25.980Z,7.05
2018-03-22T16:23:54.656Z,6.28
2018-03-22T16:26:23.151Z,5.25
2018-03-22T16:28:51.937Z,5.95
2018-03-22T16:31:20.977Z,6.35
2018-03-22T16:33:50.059Z,7.70
2018-03-22T16:36:18.954Z,8.13
2018-03-22T16:38:47.641Z,6.22
2018-03-22T16:41:16.338Z,9.20
2018-03-22T16:43:46.014Z,6.53
2018-03-22T16:46:15.010Z,6.97
2018-03-22T16:48:44.517Z,6.70
2018-03-22T16:51:13.190Z,6.72
2018-03-22T16:53:41.728Z,6.15
2018-03-22T16:56:10.353Z,6.93
2018-03-22T16:58:38.968Z,5.97
2018-03-22T17:01:07.497Z,9.32
2018-03-22T17:03:35.972Z,7.12
2018-03-22T17:06:05.099Z,6.18
2018-03-22T17:08:44.905Z,6.68
2018-03-22T17:11:14.215Z,7.70
2018-03-22T17:13:42.843Z,8.85
2018-03-22T17:16:11.888Z,7.53
2018-03-22T17:18:40.505Z,11.82
2018-03-22T17:21:09.184Z,10.50
2018-03-22T17:23:37.656Z,8.65
2018-03-22T17:26:06.233Z,10.60
2018-03-22T17:28:34.815Z,16.02
2018-03-22T17:31:03.935Z,10.45
2018-03-22T17:33:32.598Z,6.93
2018-03-22T17:36:01.308Z,6.65
2018-03-22T17:38:29.847Z,9.18
2018-03-22T17:40:58.393Z,5.28
2018-03-22T17:43:27.172Z,8.10
2018-03-22T17:45:55.858Z,7.80
2018-03-22T17:48:24.965Z,8.43
2018-03-22T17:50:55.073Z,6.15
2018-03-22T17:53:23.767Z,6.53
2018-03-22T17:55:52.671Z,6.20
2018-03-22T17:58:21.563Z,6.50
2018-03-22T18:00:50.407Z,6.30
2018-03-22T18:03:19.027Z,9.70
2018-03-22T18:05:49.431Z,8.20
2018-03-22T18:08:18.743Z,8.65
2018-03-22T18:10:47.609Z,11.00
2018-03-22T18:13:16.722Z,15.00
2018-03-22T18:15:46.040Z,16.67
2018-03-22T18:18:15.827Z,11.93
2018-03-22T18:20:44.546Z,12.37
2018-03-22T18:23:13.316Z,9.60
2018-03-22T18:25:41.862Z,10.40
2018-03-22T18:28:10.376Z,10.70
2018-03-22T18:30:38.958Z,10.70
2018-03-22T18:33:08.259Z,13.57
2018-03-22T18:35:36.996Z,9.02
2018-03-22T18:38:05.593Z,12.27
2018-03-22T18:40:34.243Z,10.35
2018-03-22T18:43:02.910Z,12.20
2018-03-22T18:45:31.617Z,15.13
2018-03-22T18:48:00.855Z,13.25
2018-03-22T18:50:29.578Z,13.93
2018-03-22T18:52:58.913Z,13.40
2018-03-22T18:55:27.659Z,14.60
2018-03-22T18:57:56.193Z,8.65
2018-03-22T19:00:25.221Z,12.37
2018-03-22T19:02:54.867Z,8.48
2018-03-22T19:05:24.776Z,11.45
2018-03-22T19:07:53.360Z,11.00
2018-03-22T19:10:22.568Z,12.30
2018-03-22T19:12:51.181Z,12.73
2018-03-22T19:15:19.823Z,13.68
2018-03-22T19:17:48.478Z,12.37
2018-03-22T19:20:17.187Z,14.13
2018-03-22T19:22:46.480Z,14.52
2018-03-22T19:25:15.067Z,15.30
2018-03-22T19:27:43.783Z,8.02
2018-03-22T19:30:12.288Z,12.98
2018-03-22T19:32:41.574Z,16.77
2018-03-22T19:35:10.167Z,9.98
2018-03-22T19:37:38.750Z,13.23
2018-03-22T19:40:07.487Z,12.37
2018-03-22T19:42:35.974Z,9.80
2018-03-22T19:45:04.583Z,12.00
2018-03-22T19:47:33.137Z,10.75
2018-03-22T19:50:01.633Z,15.25
2018-03-22T19:52:30.165Z,9.57
2018-03-22T19:54:58.784Z,14.32
2018-03-22T19:57:28.983Z,11.82
2018-03-22T19:59:57.588Z,10.30
2018-03-22T20:02:26.724Z,9.05
2018-03-22T20:04:55.276Z,10.48
2018-03-22T20:07:23.963Z,14.02
2018-03-22T20:09:52.949Z,12.10
2018-03-22T20:12:24.496Z,13.80
2018-03-22T20:14:53.606Z,10.45
2018-03-22T20:17:22.402Z,11.48
2018-03-22T20:19:51.017Z,11.45
2018-03-22T20:22:20.798Z,9.18
2018-03-22T20:24:49.580Z,8.93
2018-03-22T20:27:18.259Z,9.23
2018-03-22T20:29:47.234Z,9.40
2018-03-22T20:32:15.831Z,13.73
2018-03-22T20:34:45.037Z,8.20
2018-03-22T20:37:14.397Z,10.27
2018-03-22T20:39:43.128Z,16.37
2018-03-22T20:42:11.691Z,9.50
2018-03-22T20:44:40.175Z,11.38
2018-03-22T20:47:08.717Z,12.40
2018-03-22T20:49:37.612Z,15.93
2018-03-22T20:52:06.243Z,14.10
2018-03-22T20:54:34.834Z,10.65
2018-03-22T20:57:03.309Z,14.93
2018-03-22T20:59:32.422Z,9.77
2018-03-22T21:02:01.671Z,13.38
2018-03-22T21:04:30.238Z,11.32
2018-03-22T21:06:58.924Z,10.75
2018-03-22T21:09:27.525Z,9.90
2018-03-22T21:11:56.352Z,9.57
2018-03-22T21:14:25.062Z,10.82
2018-03-22T21:16:54.047Z,11.07
2018-03-22T21:19:23.084Z,15.35
2018-03-22T21:21:51.727Z,17.37
2018-03-22T21:24:23.559Z,11.85
2018-03-22T21:26:52.740Z,9.38
2018-03-22T21:29:21.360Z,12.45
2018-03-22T21:31:50.039Z,10.07
2018-03-22T21:34:18.994Z,20.83
2018-03-22T21:36:51.414Z,14.55
2018-03-22T21:39:21.727Z,12.63
2018-03-22T21:42:02.112Z,10.15
2018-03-22T21:44:30.626Z,13.25
2018-03-22T21:47:10.953Z,10.35
2018-03-22T21:49:39.583Z,10.98
2018-03-22T21:52:19.806Z,11.65
2018-03-22T21:54:48.411Z,9.30
2018-03-22T21:57:17.108Z,11.88
2018-03-22T21:59:45.873Z,10.15
2018-03-22T22:04:51.753Z,12.40
2018-03-22T22:07:20.599Z,13.85
2018-03-22T22:09:49.283Z,8.55
2018-03-22T22:15:14.367Z,9.00
2018-03-22T22:17:43.035Z,9.20
2018-03-22T22:20:11.518Z,8.93
2018-03-22T22:22:40.042Z,13.93
2018-03-22T22:25:08.639Z,11.45
2018-03-22T22:27:37.586Z,11.45
2018-03-22T22:30:06.104Z,11.02
2018-03-22T22:32:34.636Z,22.00
2018-03-22T22:35:03.165Z,8.25
2018-03-22T22:37:31.647Z,11.00
2018-03-22T22:40:00.190Z,12.82
2018-03-22T22:42:28.894Z,14.05
2018-03-22T22:44:57.478Z,11.68
2018-03-22T22:47:25.988Z,12.48
2018-03-22T22:49:54.527Z,12.10
2018-03-22T22:52:23.210Z,11.40
2018-03-22T22:54:52.018Z,10.30
2018-03-22T22:57:20.526Z,13.02
2018-03-22T22:59:49.065Z,12.75
2018-03-22T23:02:17.750Z,16.23
2018-03-22T23:04:46.379Z,8.80
2018-03-22T23:07:14.961Z,9.80
2018-03-22T23:09:43.495Z,11.35
2018-03-22T23:12:12.072Z,10.63
2018-03-22T23:14:40.558Z,10.02
2018-03-22T23:17:09.198Z,12.20
2018-03-22T23:19:38.908Z,9.70
2018-03-22T23:22:07.437Z,11.00
2018-03-22T23:24:36.081Z,14.63
2018-03-22T23:27:04.702Z,8.00
2018-03-22T23:29:33.277Z,16.87
2018-03-22T23:32:01.969Z,8.48
2018-03-22T23:34:30.406Z,11.10
2018-03-22T23:36:58.879Z,18.75
2018-03-22T23:39:27.423Z,8.13
2018-03-22T23:41:56.009Z,12.05
2018-03-22T23:44:24.673Z,17.48
2018-03-22T23:46:53.265Z,11.70
2018-03-22T23:49:21.807Z,8.43
2018-03-22T23:51:50.463Z,8.77
2018-03-22T23:54:18.991Z,12.60
2018-03-22T23:56:47.559Z,8.52
2018-03-22T23:59:16.051Z,8.93
